Time;durP1;ratioP1;P1;durP2;ratioP2;P2;SDS_P1;SDS_P2;PMS_P1;PMS_P2;Temp;Humidity;BMP_temperature;BMP_pressure;BME280_temperature;BME280_humidity;BME280_pressure;Samples;Min_cycle;Max_cycle;Signal;HPM_P1;HPM_P2
2021/11/02 00:00:24;;;;;;;4.75;2.70;;;11.60;99.30;;;;;;5021317;28;20111;-78
2021/11/02 00:02:50;;;;;;;3.08;2.05;;;11.60;99.30;;;;;;5024503;28;20034;-78
2021/11/02 00:05:17;;;;;;;3.75;2.50;;;11.60;99.20;;;;;;5022595;28;20058;-79
2021/11/02 00:07:45;;;;;;;9.23;2.22;;;11.60;99.20;;;;;;5028239;28;20021;-78
2021/11/02 00:10:11;;;;;;;2.85;2.20;;;11.60;99.20;;;;;;5020699;28;20028;-79
2021/11/02 00:12:36;;;;;;;4.63;2.47;;;11.60;99.30;;;;;;5022271;28;20033;-79
2021/11/02 00:15:02;;;;;;;2.72;1.90;;;11.60;99.30;;;;;;5023390;28;20068;-78
2021/11/02 00:17:29;;;;;;;3.58;2.13;;;11.60;99.40;;;;;;5022006;28;20029;-78
2021/11/02 00:19:58;;;;;;;4.22;2.10;;;11.50;99.40;;;;;;5029286;28;20029;-77
2021/11/02 00:22:25;;;;;;;4.20;1.83;;;11.60;99.50;;;;;;5029476;28;20042;-79
2021/11/02 00:27:25;;;;;;;3.53;1.75;;;11.60;99.50;;;;;;5020923;28;20044;-79
2021/11/02 00:29:51;;;;;;;2.78;1.55;;;11.60;99.40;;;;;;5015626;28;20498;-80
2021/11/02 00:32:17;;;;;;;3.15;1.95;;;11.60;99.40;;;;;;5032185;28;20063;-79
2021/11/02 00:34:42;;;;;;;5.53;2.03;;;11.60;99.40;;;;;;5015184;28;20022;-78
2021/11/02 00:37:08;;;;;;;3.58;1.92;;;11.60;99.30;;;;;;5020254;28;20041;-79
2021/11/02 00:39:34;;;;;;;4.65;2.05;;;11.60;99.30;;;;;;5023965;28;20466;-79
2021/11/02 00:41:59;;;;;;;3.22;1.60;;;11.60;99.40;;;;;;5021820;28;20042;-79
2021/11/02 00:44:25;;;;;;;3.50;2.22;;;11.60;99.40;;;;;;5024901;28;20033;-79
2021/11/02 00:46:52;;;;;;;4.97;1.80;;;11.60;99.40;;;;;;5028645;28;20053;-79
2021/11/02 00:49:20;;;;;;;5.30;1.95;;;11.60;99.40;;;;;;5022468;28;20036;-79
2021/11/02 00:51:46;;;;;;;4.78;2.15;;;11.60;99.40;;;;;;5028936;28;20025;-78
2021/11/02 00:54:13;;;;;;;3.97;1.88;;;11.60;99.40;;;;;;5019020;28;20030;-79
2021/11/02 00:56:39;;;;;;;5.50;1.92;;;11.50;99.40;;;;;;5022993;28;20018;-78
2021/11/02 00:59:05;;;;;;;6.88;1.77;;;11.60;99.40;;;;;;5027080;28;20037;-81
2021/11/02 01:01:31;;;;;;;7.40;2.03;;;11.50;99.40;;;;;;5021785;28;20501;-79
2021/11/02 01:03:56;;;;;;;4.43;2.15;;;11.50;99.40;;;;;;5013118;28;20502;-78
2021/11/02 01:06:22;;;;;;;6.53;2.30;;;11.50;99.40;;;;;;5015698;28;20028;-77
2021/11/02 01:08:47;;;;;;;5.05;1.88;;;11.50;99.50;;;;;;5013382;28;20030;-77
2021/11/02 01:11:13;;;;;;;3.05;1.50;;;11.50;99.50;;;;;;5018887;28;20480;-80
2021/11/02 01:13:39;;;;;;;3.75;1.67;;;11.50;99.50;;;;;;5019559;28;20387;-76
2021/11/02 01:16:04;;;;;;;7.25;2.85;;;11.50;99.50;;;;;;5032721;28;20038;-79
2021/11/02 01:18:30;;;;;;;4.75;1.70;;;11.50;99.50;;;;;;5029909;28;20021;-78
2021/11/02 01:20:56;;;;;;;3.92;1.30;;;11.50;99.50;;;;;;5032616;28;20029;-79
2021/11/02 01:23:21;;;;;;;4.82;1.92;;;11.50;99.60;;;;;;5023368;28;20045;-79
2021/11/02 01:25:47;;;;;;;2.92;1.60;;;11.50;99.60;;;;;;5012044;28;20510;-79
2021/11/02 01:28:12;;;;;;;3.60;1.80;;;11.50;99.60;;;;;;5025160;28;20492;-79
2021/11/02 01:30:38;;;;;;;7.35;1.95;;;11.50;99.60;;;;;;5026452;28;20104;-80
2021/11/02 01:33:04;;;;;;;4.20;1.92;;;11.40;99.60;;;;;;5026008;28;20045;-79
2021/11/02 01:35:30;;;;;;;2.72;1.60;;;11.40;99.60;;;;;;5032011;28;20493;-79
2021/11/02 01:37:56;;;;;;;5.65;1.83;;;11.50;99.60;;;;;;5028211;28;20034;-79
2021/11/02 01:40:21;;;;;;;2.42;1.58;;;11.50;99.60;;;;;;5023700;28;20072;-80
2021/11/02 01:42:47;;;;;;;3.63;1.60;;;11.40;99.60;;;;;;5021613;28;20038;-79
2021/11/02 01:45:15;;;;;;;4.30;1.77;;;11.40;99.60;;;;;;5016282;28;20048;-77
2021/11/02 01:47:44;;;;;;;3.97;1.83;;;11.40;99.50;;;;;;5022032;28;20029;-79
2021/11/02 01:50:11;;;;;;;5.32;2.25;;;11.40;99.60;;;;;;5027297;28;20386;-78
2021/11/02 01:52:38;;;;;;;6.00;1.52;;;11.40;99.60;;;;;;5014218;28;20037;-78
2021/11/02 01:55:04;;;;;;;7.55;2.63;;;11.40;99.60;;;;;;5023236;28;20456;-79
2021/11/02 01:57:30;;;;;;;3.00;1.77;;;11.40;99.60;;;;;;5015442;28;20102;-78
2021/11/02 01:59:56;;;;;;;2.90;1.95;;;11.40;99.60;;;;;;5028556;28;20033;-78
2021/11/02 02:02:35;;;;;;;3.60;1.88;;;11.40;99.60;;;;;;5025371;28;20041;-77
2021/11/02 02:05:14;;;;;;;3.22;1.88;;;11.40;99.60;;;;;;5014024;28;20447;-78
2021/11/02 02:07:58;;;;;;;5.35;1.98;;;11.40;99.60;;;;;;5014452;28;20582;-79
2021/11/02 02:10:41;;;;;;;3.40;1.80;;;11.40;99.60;;;;;;5022440;28;20034;-78
2021/11/02 02:13:08;;;;;;;;;;;11.30;99.60;;;;;;5023202;28;20034;-78
2021/11/02 02:16:03;;;;;;;2.85;1.45;;;11.30;99.60;;;;;;5029605;28;19923;-78
2021/11/02 02:18:34;;;;;;;2.65;1.70;;;11.30;99.70;;;;;;5013253;28;20029;-79
2021/11/02 02:21:16;;;;;;;3.25;1.80;;;11.20;99.70;;;;;;5018363;28;20041;-79
2021/11/02 02:24:19;;;;;;;3.13;1.87;;;11.20;99.70;;;;;;5022445;28;20540;-79
2021/11/02 02:27:09;;;;;;;1.35;1.17;;;11.20;99.70;;;;;;5026896;28;20776;-79
2021/11/02 02:29:38;;;;;;;6.00;1.58;;;11.20;99.70;;;;;;5018805;28;20545;-79
2021/11/02 02:32:06;;;;;;;3.90;1.70;;;11.20;99.70;;;;;;5027820;28;20375;-79
2021/11/02 02:34:32;;;;;;;3.75;1.60;;;11.20;99.70;;;;;;5018291;28;20386;-79
2021/11/02 02:36:59;;;;;;;2.83;1.75;;;11.20;99.70;;;;;;5018848;28;20041;-79
2021/11/02 02:39:26;;;;;;;3.42;1.90;;;11.20;99.70;;;;;;5021935;28;20057;-79
2021/11/02 02:41:52;;;;;;;2.95;2.00;;;11.20;99.70;;;;;;5025991;28;20041;-79
2021/11/02 02:44:18;;;;;;;2.67;1.80;;;11.20;99.70;;;;;;5031350;28;20038;-79
2021/11/02 02:46:46;;;;;;;5.05;2.05;;;11.20;99.70;;;;;;5020619;28;20224;-79
2021/11/02 02:49:13;;;;;;;3.45;1.88;;;11.20;99.70;;;;;;5019597;28;20463;-79
2021/11/02 02:51:44;;;;;;;6.40;1.95;;;11.20;99.70;;;;;;5024905;28;20037;-79
2021/11/02 02:54:13;;;;;;;4.00;2.10;;;11.20;99.70;;;;;;5021000;28;20140;-79
2021/11/02 02:56:46;;;;;;;4.93;2.00;;;11.20;99.70;;;;;;5020046;28;20104;-79
2021/11/02 02:59:12;;;;;;;4.68;2.20;;;11.20;99.70;;;;;;5016123;28;20454;-79
2021/11/02 03:01:38;;;;;;;5.78;1.75;;;11.20;99.70;;;;;;5019901;28;20045;-79
2021/11/02 03:04:07;;;;;;;4.38;2.25;;;11.20;99.70;;;;;;5025280;28;20057;-79
2021/11/02 03:06:36;;;;;;;3.03;1.98;;;11.20;99.70;;;;;;5022176;28;20088;-80
2021/11/02 03:09:05;;;;;;;7.50;2.50;;;11.20;99.70;;;;;;5020327;28;20099;-79
2021/11/02 03:11:33;;;;;;;3.45;2.13;;;11.10;99.80;;;;;;5021797;28;20030;-79
2021/11/02 03:14:02;;;;;;;2.70;1.73;;;11.10;99.80;;;;;;5022873;28;20030;-79
2021/11/02 03:16:40;;;;;;;3.88;2.00;;;11.10;99.80;;;;;;5019426;28;20048;-79
2021/11/02 03:49:33;;;;;;;4.18;2.67;;;11.10;99.90;;;;;;5013944;28;20548;-77
2021/11/02 03:52:16;;;;;;;3.72;1.83;;;11.10;99.90;;;;;;5014736;28;20033;-78
2021/11/02 03:54:51;;;;;;;4.90;2.22;;;11.10;99.90;;;;;;5024796;28;20030;-77
2021/11/02 03:57:37;;;;;;;5.25;2.58;;;11.10;99.90;;;;;;5022785;28;20026;-78
2021/11/02 04:28:13;;;;;;;4.80;2.05;;;11.10;99.90;;;;;;5019190;28;20042;-78
2021/11/02 04:30:49;;;;;;;3.47;1.77;;;11.10;99.90;;;;;;5018699;28;20034;-80
2021/11/02 04:37:24;;;;;;;3.05;2.22;;;11.10;99.90;;;;;;5031515;28;20387;-80
2021/11/02 04:47:43;;;;;;;5.55;2.17;;;11.00;99.80;;;;;;5020470;28;20123;-79
2021/11/02 04:58:08;;;;;;;5.07;2.30;;;11.00;99.90;;;;;;5036624;28;20074;-78
2021/11/02 05:07:05;;;;;;;7.57;2.42;;;11.00;99.90;;;;;;5023126;28;20570;-79
2021/11/02 05:56:43;;;;;;;3.70;2.28;;;10.80;99.70;;;;;;5015676;28;20048;-79
2021/11/02 06:07:46;;;;;;;5.97;2.80;;;10.70;99.90;;;;;;5027464;28;20556;-79
2021/11/02 06:29:46;;;;;;;5.20;2.40;;;10.50;99.90;;;;;;5025769;28;20501;-78
2021/11/02 06:32:20;;;;;;;3.60;2.40;;;10.50;99.90;;;;;;5027595;28;20032;-79
2021/11/02 06:35:07;;;;;;;6.03;2.40;;;10.50;99.90;;;;;;5026894;28;20034;-79
2021/11/02 06:38:01;;;;;;;2.17;1.83;;;10.50;99.90;;;;;;5027100;28;20018;-78
2021/11/02 06:43:31;;;;;;;3.90;2.38;;;10.50;99.80;;;;;;5027566;28;20121;-78
2021/11/02 06:46:35;;;;;;;4.05;2.13;;;10.50;99.80;;;;;;5027550;28;20509;-79
2021/11/02 06:49:33;;;;;;;3.63;2.50;;;10.50;99.70;;;;;;5025823;28;20041;-78
2021/11/02 06:52:26;;;;;;;3.88;2.92;;;10.50;99.70;;;;;;5026978;28;20095;-79
2021/11/02 07:20:13;;;;;;;4.25;2.70;;;10.70;99.40;;;;;;5010987;28;20034;-79
2021/11/02 07:25:42;;;;;;;4.65;2.45;;;10.80;99.20;;;;;;5031226;28;20064;-79
2021/11/02 08:47:28;;;;;;;22.17;6.55;;;11.30;97.50;;;;;;5024190;28;20033;-78
2021/11/02 08:49:54;;;;;;;15.80;3.05;;;11.30;97.50;;;;;;5028966;28;20040;-80
2021/11/02 08:52:20;;;;;;;3.45;1.92;;;11.40;97.30;;;;;;5027332;28;20033;-79
2021/11/02 08:54:49;;;;;;;2.70;1.70;;;11.50;97.10;;;;;;5025740;28;20091;-78
2021/11/02 08:57:16;;;;;;;4.57;1.83;;;11.60;97.20;;;;;;5027905;28;20040;-79
2021/11/02 08:59:42;;;;;;;3.00;1.70;;;11.70;96.90;;;;;;5028111;28;20040;-78
2021/11/02 09:02:12;;;;;;;2.33;2.00;;;11.80;96.70;;;;;;5012525;28;20034;-78
2021/11/02 09:04:45;;;;;;;1.50;1.30;;;11.90;96.50;;;;;;5010434;28;20021;-78
2021/11/02 09:07:20;;;;;;;3.22;1.70;;;11.90;96.10;;;;;;5020339;28;20040;-78
2021/11/02 09:09:48;;;;;;;3.72;1.92;;;11.90;95.90;;;;;;5027875;28;20025;-78
2021/11/02 09:12:14;;;;;;;5.78;1.90;;;11.90;95.80;;;;;;5028302;28;20796;-78
2021/11/02 09:14:42;;;;;;;6.05;1.83;;;11.90;95.70;;;;;;5027198;28;20056;-80
2021/11/02 09:17:10;;;;;;;3.90;1.70;;;12.00;95.70;;;;;;5022505;28;20026;-80
2021/11/02 09:19:36;;;;;;;2.97;1.30;;;12.10;95.50;;;;;;5027231;28;20390;-80
2021/11/02 09:22:04;;;;;;;3.08;1.20;;;12.20;95.30;;;;;;5026830;28;20597;-81
2021/11/02 09:24:30;;;;;;;1.77;1.10;;;12.20;95.30;;;;;;5028024;28;20037;-81
2021/11/02 09:26:57;;;;;;;3.40;1.40;;;12.30;95.00;;;;;;5015716;28;20033;-80
2021/11/02 09:29:23;;;;;;;3.63;1.40;;;12.30;95.20;;;;;;5027496;28;20032;-80
2021/11/02 09:31:52;;;;;;;3.33;1.20;;;12.40;94.90;;;;;;5012266;28;20038;-80
2021/11/02 09:34:18;;;;;;;3.63;1.10;;;12.40;94.60;;;;;;5028795;28;20029;-78
2021/11/02 09:36:52;;;;;;;1.63;1.00;;;12.40;94.60;;;;;;5028313;28;20565;-80
2021/11/02 09:39:20;;;;;;;4.90;1.25;;;12.50;94.70;;;;;;5027376;28;20029;-80
2021/11/02 09:41:54;;;;;;;4.25;1.25;;;12.50;94.70;;;;;;5027181;28;20056;-80
2021/11/02 09:44:40;;;;;;;1.70;1.27;;;12.60;94.30;;;;;;5028846;28;20025;-78
2021/11/02 09:47:52;;;;;;;3.58;1.77;;;12.60;94.10;;;;;;5028083;28;20028;-80
2021/11/02 09:50:55;;;;;;;1.67;1.13;;;12.60;94.20;;;;;;5028577;28;20029;-79
2021/11/02 09:53:45;;;;;;;2.75;1.67;;;12.70;94.20;;;;;;5026956;28;20070;-79
2021/11/02 09:56:37;;;;;;;2.58;1.35;;;12.80;94.30;;;;;;5025441;28;20053;-78
2021/11/02 09:59:26;;;;;;;2.17;1.55;;;12.90;93.80;;;;;;5026130;28;20029;-79
2021/11/02 10:02:18;;;;;;;5.10;1.33;;;13.00;93.80;;;;;;5027752;28;20037;-79
2021/11/02 10:04:56;;;;;;;2.63;1.58;;;12.90;93.80;;;;;;5020590;28;20042;-79
2021/11/02 10:07:46;;;;;;;6.75;1.40;;;13.00;93.70;;;;;;5016725;28;20025;-79
2021/11/02 10:10:21;;;;;;;5.15;1.30;;;13.00;93.90;;;;;;5027946;28;20030;-79
2021/11/02 10:13:22;;;;;;;7.57;1.42;;;13.10;94.00;;;;;;5026097;28;20167;-79
2021/11/02 10:16:04;;;;;;;4.25;1.30;;;13.10;93.80;;;;;;5028235;28;20057;-79
2021/11/02 10:19:02;;;;;;;2.58;1.10;;;13.30;93.50;;;;;;5027097;28;20585;-79
2021/11/02 10:21:53;;;;;;;3.40;1.25;;;13.30;93.50;;;;;;5027424;28;20100;-78
2021/11/02 10:24:44;;;;;;;8.32;0.90;;;13.40;93.40;;;;;;5009820;28;20046;-79
2021/11/02 10:27:38;;;;;;;1.27;0.82;;;13.40;93.00;;;;;;5028297;28;20034;-78
2021/11/02 10:30:24;;;;;;;1.75;1.15;;;13.50;93.20;;;;;;5025502;28;20030;-79
2021/11/02 10:32:51;;;;;;;4.78;1.85;;;13.60;93.30;;;;;;5010636;28;20116;-79
2021/11/02 10:35:55;;;;;;;1.90;1.40;;;13.70;92.90;;;;;;5025610;28;20026;-78
2021/11/02 10:38:26;;;;;;;2.47;1.35;;;13.70;92.90;;;;;;5033546;28;20038;-78
2021/11/02 10:40:57;;;;;;;3.47;2.15;;;13.80;92.90;;;;;;5013674;28;20025;-78
2021/11/02 10:43:34;;;;;;;3.85;1.38;;;13.80;92.60;;;;;;5028588;28;20041;-78
2021/11/02 10:46:06;;;;;;;2.40;1.33;;;13.80;92.60;;;;;;5031200;28;20037;-78
2021/11/02 10:48:48;;;;;;;1.20;1.10;;;13.90;92.40;;;;;;5029602;28;20109;-78
2021/11/02 10:51:46;;;;;;;7.00;1.88;;;14.00;91.40;;;;;;5031386;28;20031;-79
2021/11/02 10:54:28;;;;;;;3.35;1.25;;;14.00;91.60;;;;;;5014369;28;20667;-79
2021/11/02 10:57:25;;;;;;;2.75;1.40;;;14.00;91.60;;;;;;5012039;28;20390;-78
2021/11/02 11:00:00;;;;;;;6.18;1.00;;;14.00;91.60;;;;;;5010684;28;20390;-80
2021/11/02 11:02:29;;;;;;;3.20;0.90;;;14.10;91.80;;;;;;5033723;28;20033;-79
2021/11/02 11:04:57;;;;;;;2.33;0.90;;;14.10;91.80;;;;;;5028059;28;20048;-81
2021/11/02 11:07:25;;;;;;;4.28;1.00;;;14.20;91.00;;;;;;5031238;28;20032;-79
2021/11/02 11:09:54;;;;;;;2.88;0.85;;;14.30;90.50;;;;;;5031057;28;20024;-78
2021/11/02 11:12:26;;;;;;;2.10;1.10;;;14.30;91.00;;;;;;5029357;28;20061;-78
2021/11/02 11:14:53;;;;;;;0.65;0.65;;;14.30;90.70;;;;;;5031052;28;20032;-78
2021/11/02 11:17:28;;;;;;;1.95;0.90;;;14.30;91.00;;;;;;5028008;28;20099;-79
2021/11/02 11:20:07;;;;;;;1.92;0.70;;;14.20;91.10;;;;;;5014884;28;20034;-78
2021/11/02 11:22:39;;;;;;;4.07;1.63;;;14.20;91.10;;;;;;5015901;28;20040;-79
2021/11/02 11:25:10;;;;;;;3.72;2.10;;;14.10;91.30;;;;;;5015889;28;20053;-78
2021/11/02 11:27:48;;;;;;;4.30;1.85;;;14.10;91.30;;;;;;5022811;28;20488;-79
2021/11/02 11:30:16;;;;;;;3.83;1.60;;;14.20;91.50;;;;;;5021914;28;20567;-79
2021/11/02 11:32:42;;;;;;;3.53;1.23;;;14.30;91.40;;;;;;5030087;28;20497;-82
2021/11/02 11:35:09;;;;;;;1.60;1.50;;;14.40;90.40;;;;;;5014104;28;20029;-79
2021/11/02 11:37:41;;;;;;;3.90;0.88;;;14.60;90.00;;;;;;5029224;28;20038;-82
2021/11/02 11:40:10;;;;;;;3.67;1.20;;;14.60;89.70;;;;;;5034009;28;20549;-79
2021/11/02 11:42:38;;;;;;;3.25;0.80;;;14.60;90.10;;;;;;5023164;28;20036;-81
2021/11/02 11:45:13;;;;;;;2.35;1.00;;;14.60;90.20;;;;;;5028963;28;20063;-80
2021/11/02 11:47:39;;;;;;;1.60;1.00;;;14.60;90.20;;;;;;5024957;28;20785;-81
2021/11/02 11:50:22;;;;;;;3.42;0.95;;;14.60;90.30;;;;;;5026113;28;20083;-82
2021/11/02 11:52:54;;;;;;;2.65;0.90;;;14.60;90.40;;;;;;5026021;28;20125;-80
2021/11/02 11:55:26;;;;;;;5.88;0.90;;;14.60;90.00;;;;;;5030352;28;20030;-81
2021/11/02 11:58:02;;;;;;;3.85;1.20;;;14.50;89.80;;;;;;5018450;28;20029;-80
2021/11/02 12:00:28;;;;;;;5.28;1.02;;;14.40;90.00;;;;;;5029285;28;20049;-83
2021/11/02 12:03:11;;;;;;;1.52;0.75;;;14.30;90.30;;;;;;5026273;28;20362;-83
2021/11/02 12:05:56;;;;;;;2.80;0.75;;;14.30;90.10;;;;;;5029260;28;20025;-85
2021/11/02 12:08:36;;;;;;;1.33;0.80;;;14.20;90.70;;;;;;5027461;28;20036;-81
2021/11/02 12:11:03;;;;;;;2.33;0.60;;;14.20;90.70;;;;;;5029609;28;20037;-81
2021/11/02 12:13:30;;;;;;;1.27;0.70;;;14.20;90.60;;;;;;5027974;28;20037;-82
2021/11/02 12:16:10;;;;;;;2.40;0.90;;;14.20;90.50;;;;;;5008991;28;20161;-80
2021/11/02 12:18:42;;;;;;;3.65;1.10;;;14.20;90.70;;;;;;5009473;28;20057;-83
2021/11/02 12:21:16;;;;;;;1.75;0.70;;;14.10;90.40;;;;;;5041921;28;20041;-79
2021/11/02 12:23:42;;;;;;;1.98;0.70;;;14.00;90.30;;;;;;5045614;28;20148;-80
2021/11/02 12:26:09;;;;;;;3.20;0.80;;;13.90;90.80;;;;;;5030162;28;20033;-81
2021/11/02 12:28:42;;;;;;;4.50;0.77;;;13.80;90.80;;;;;;5029534;28;20033;-81
2021/11/02 12:31:16;;;;;;;3.15;0.90;;;13.70;90.50;;;;;;5026069;28;20095;-81
2021/11/02 12:33:45;;;;;;;3.22;0.77;;;13.60;90.10;;;;;;5014068;28;20509;-81
2021/11/02 12:36:24;;;;;;;0.98;0.85;;;13.50;90.20;;;;;;5031058;28;20174;-81
2021/11/02 12:39:00;;;;;;;5.63;0.75;;;13.50;90.50;;;;;;5029368;28;20021;-82
2021/11/02 12:41:25;;;;;;;0.60;0.55;;;13.50;90.30;;;;;;5025834;28;20037;-82
2021/11/02 12:44:06;;;;;;;3.70;1.00;;;13.60;90.20;;;;;;5012895;28;20033;-80
2021/11/02 12:46:32;;;;;;;1.85;0.70;;;13.70;89.60;;;;;;5028613;28;20524;-80
2021/11/02 12:49:03;;;;;;;0.80;0.50;;;13.70;90.30;;;;;;5045503;28;20045;-80
2021/11/02 12:51:34;;;;;;;0.68;0.43;;;13.80;90.40;;;;;;5030630;28;20104;-80
2021/11/02 12:54:03;;;;;;;0.88;0.65;;;13.80;90.10;;;;;;5030630;28;20046;-83
2021/11/02 12:56:33;;;;;;;2.85;0.80;;;13.90;90.00;;;;;;5028548;28;20029;-81
2021/11/02 12:59:16;;;;;;;1.88;0.55;;;14.00;90.10;;;;;;5007991;28;20034;-80
2021/11/02 13:01:43;;;;;;;4.53;1.33;;;14.10;90.30;;;;;;5008887;28;20030;-80
2021/11/02 13:04:09;;;;;;;2.13;0.82;;;14.20;89.80;;;;;;5027384;28;20033;-81
2021/11/02 13:06:52;;;;;;;3.08;0.80;;;14.30;90.10;;;;;;5012723;28;20029;-80
2021/11/02 13:09:20;;;;;;;2.83;0.70;;;14.30;89.30;;;;;;5027133;28;20078;-80
2021/11/02 13:11:50;;;;;;;2.60;0.90;;;14.20;89.50;;;;;;5023872;28;20022;-80
2021/11/02 13:14:16;;;;;;;1.98;1.23;;;14.20;90.20;;;;;;5012209;28;20083;-80
2021/11/02 13:17:00;;;;;;;1.27;0.60;;;14.10;90.30;;;;;;5023935;28;20033;-80
2021/11/02 13:19:54;;;;;;;4.68;1.00;;;14.10;90.30;;;;;;5027853;28;20485;-80
2021/11/02 13:22:25;;;;;;;1.75;1.00;;;14.10;90.70;;;;;;5028673;28;20518;-80
2021/11/02 13:25:10;;;;;;;3.92;1.60;;;14.10;90.70;;;;;;5031078;28;20045;-81
2021/11/02 13:27:43;;;;;;;3.10;1.02;;;14.00;90.70;;;;;;5028166;28;20029;-80
2021/11/02 13:30:31;;;;;;;1.52;1.20;;;14.00;90.90;;;;;;5027920;28;20033;-80
2021/11/02 13:33:07;;;;;;;3.63;1.23;;;14.00;91.20;;;;;;5009422;28;20571;-80
2021/11/02 13:35:50;;;;;;;2.65;1.35;;;13.90;92.00;;;;;;5019652;28;20111;-80
2021/11/02 13:38:18;;;;;;;;;;;13.80;92.00;;;;;;5025517;28;20053;-80
2021/11/02 13:40:44;;;;;;;1.58;1.05;;;13.70;92.50;;;;;;5017104;28;20064;-80
2021/11/02 13:43:10;;;;;;;3.63;0.93;;;13.70;92.70;;;;;;5027890;28;20132;-80
2021/11/02 13:45:35;;;;;;;2.67;1.17;;;13.70;92.90;;;;;;5026348;28;20045;-80
2021/11/02 13:48:04;;;;;;;3.92;0.85;;;13.70;93.00;;;;;;5027060;28;20479;-80
2021/11/02 13:50:29;;;;;;;1.70;1.00;;;13.60;92.90;;;;;;5024386;28;20022;-80
2021/11/02 13:52:55;;;;;;;2.78;1.20;;;13.60;93.20;;;;;;5006962;28;20037;-80
2021/11/02 13:55:22;;;;;;;2.05;1.08;;;13.60;93.20;;;;;;5014117;28;20033;-80
2021/11/02 13:57:48;;;;;;;2.25;1.00;;;13.60;93.40;;;;;;5030081;28;20767;-80
2021/11/02 14:00:15;;;;;;;3.05;0.93;;;13.50;93.20;;;;;;5027158;28;20022;-80
2021/11/02 14:02:42;;;;;;;1.00;0.85;;;13.40;93.00;;;;;;5029388;28;20060;-80
2021/11/02 14:05:11;;;;;;;0.70;0.63;;;13.30;93.30;;;;;;5025221;28;20771;-81
2021/11/02 14:07:37;;;;;;;4.40;0.88;;;13.20;93.20;;;;;;5026232;28;20108;-81
2021/11/02 14:10:08;;;;;;;2.30;1.00;;;13.20;93.00;;;;;;5027878;28;20029;-81
2021/11/02 14:12:45;;;;;;;2.42;1.40;;;13.20;93.30;;;;;;5021401;28;20021;-81
2021/11/02 14:15:10;;;;;;;2.45;0.90;;;13.10;93.30;;;;;;5014361;28;20494;-81
2021/11/02 14:17:47;;;;;;;1.38;0.98;;;13.10;93.50;;;;;;5028886;28;20182;-81
2021/11/02 14:20:33;;;;;;;4.72;1.70;;;13.10;93.70;;;;;;5028375;28;20107;-80
2021/11/02 14:23:05;;;;;;;4.22;1.15;;;13.10;93.80;;;;;;5029263;28;20053;-81
2021/11/02 14:25:41;;;;;;;3.83;1.17;;;13.10;93.50;;;;;;5031098;28;20017;-81
2021/11/02 14:28:08;;;;;;;2.22;1.20;;;13.00;93.80;;;;;;5028945;28;20029;-81
2021/11/02 14:30:43;;;;;;;4.10;1.42;;;13.00;93.90;;;;;;5028296;28;20509;-81
2021/11/02 14:33:17;;;;;;;2.08;0.90;;;13.00;93.40;;;;;;5030033;28;20045;-81
2021/11/02 14:35:47;;;;;;;3.75;1.52;;;12.90;93.20;;;;;;5027078;28;20087;-82
2021/11/02 14:38:12;;;;;;;6.30;1.45;;;13.00;93.40;;;;;;5014055;28;20029;-81
2021/11/02 14:40:50;;;;;;;3.28;1.20;;;13.00;93.50;;;;;;5009462;28;20030;-81
2021/11/02 14:43:17;;;;;;;2.65;1.00;;;12.90;93.30;;;;;;5012181;28;20030;-82
2021/11/02 14:46:03;;;;;;;2.53;1.20;;;13.00;93.40;;;;;;5029561;28;20285;-78
2021/11/02 14:48:41;;;;;;;8.18;1.85;;;12.90;93.50;;;;;;5027158;28;20372;-79
2021/11/02 14:51:12;;;;;;;4.78;1.30;;;12.90;93.70;;;;;;5009265;28;20022;-79
2021/11/02 14:53:41;;;;;;;4.13;2.17;;;12.90;94.00;;;;;;5016444;28;20033;-81
2021/11/02 14:56:12;;;;;;;3.50;1.50;;;12.90;93.80;;;;;;5047938;28;20025;-82
2021/11/02 14:58:44;;;;;;;2.63;1.20;;;12.90;93.50;;;;;;5048733;28;20025;-81
2021/11/02 15:01:37;;;;;;;2.28;1.30;;;12.90;93.40;;;;;;5048367;28;20490;-81
2021/11/02 15:04:10;;;;;;;2.90;1.38;;;12.90;93.30;;;;;;5047937;28;20431;-81
2021/11/02 15:07:02;;;;;;;3.25;1.60;;;12.90;93.40;;;;;;5049815;28;20432;-82
2021/11/02 15:09:34;;;;;;;3.45;1.70;;;12.90;93.40;;;;;;5048878;28;20119;-82
2021/11/02 15:12:00;;;;;;;1.73;1.35;;;12.90;93.50;;;;;;5048819;28;20494;-81
2021/11/02 15:14:32;;;;;;;2.20;1.40;;;12.80;93.70;;;;;;5039654;28;20481;-81
2021/11/02 15:17:09;;;;;;;2.78;1.50;;;12.80;94.00;;;;;;5015341;28;20033;-81
2021/11/02 15:19:38;;;;;;;1.90;1.40;;;12.80;94.00;;;;;;5031994;28;20032;-82
2021/11/02 15:22:16;;;;;;;1.95;1.35;;;12.70;94.10;;;;;;5022696;28;20651;-82
2021/11/02 15:24:44;;;;;;;2.50;1.35;;;12.70;94.10;;;;;;5030838;28;20033;-81
2021/11/02 15:27:16;;;;;;;1.40;1.20;;;12.70;94.20;;;;;;5029487;28;20466;-82
2021/11/02 15:29:58;;;;;;;3.40;1.70;;;12.60;94.20;;;;;;5023798;28;20062;-82
2021/11/02 15:32:26;;;;;;;2.50;1.87;;;12.60;94.20;;;;;;5025445;28;20033;-81
2021/11/02 15:34:56;;;;;;;2.80;1.83;;;12.50;94.30;;;;;;5033442;28;20029;-81
2021/11/02 15:37:34;;;;;;;2.65;2.30;;;12.50;94.40;;;;;;5037343;28;20057;-80
2021/11/02 15:40:15;;;;;;;3.80;2.03;;;12.40;94.40;;;;;;5028031;28;20033;-81
2021/11/02 15:42:49;;;;;;;5.50;2.00;;;12.40;94.60;;;;;;5027838;28;20033;-81
2021/11/02 15:45:35;;;;;;;4.78;3.30;;;12.30;94.70;;;;;;5028818;28;20037;-81
2021/11/02 15:48:06;;;;;;;7.18;3.00;;;12.20;94.90;;;;;;5030183;28;20127;-81
2021/11/02 15:50:33;;;;;;;6.28;3.05;;;12.10;95.00;;;;;;5027604;28;20429;-81
2021/11/02 15:53:09;;;;;;;5.15;2.22;;;12.00;95.20;;;;;;5030535;28;20045;-82
2021/11/02 15:55:35;;;;;;;2.72;2.35;;;12.00;95.30;;;;;;5033424;28;20029;-81
2021/11/02 15:58:04;;;;;;;4.40;2.60;;;11.90;95.50;;;;;;5028768;28;20037;-82
2021/11/02 16:00:36;;;;;;;2.58;2.25;;;11.80;95.60;;;;;;5016730;28;20116;-82
2021/11/02 16:03:02;;;;;;;3.60;2.35;;;11.80;95.70;;;;;;5021396;28;20634;-82
2021/11/02 16:05:33;;;;;;;3.22;2.85;;;11.80;95.80;;;;;;5019719;28;20039;-81
2021/11/02 16:08:12;;;;;;;2.40;2.20;;;11.70;95.90;;;;;;5025215;28;20749;-82
2021/11/02 16:10:37;;;;;;;6.32;2.42;;;11.70;96.00;;;;;;5025543;28;20040;-81
2021/11/02 16:13:07;;;;;;;4.53;2.75;;;11.70;96.20;;;;;;5025115;28;20038;-82
2021/11/02 16:15:40;;;;;;;3.67;2.70;;;11.70;96.40;;;;;;5029195;28;20033;-82
2021/11/02 16:18:13;;;;;;;5.72;2.88;;;11.70;96.40;;;;;;5027068;28;20044;-82
2021/11/02 16:20:41;;;;;;;3.35;2.55;;;11.70;96.50;;;;;;5016919;28;20075;-82
2021/11/02 16:23:22;;;;;;;3.40;2.65;;;11.70;96.50;;;;;;5028702;28;20034;-81
2021/11/02 16:26:09;;;;;;;5.55;2.90;;;11.70;96.60;;;;;;5024335;28;20079;-80
2021/11/02 16:28:35;;;;;;;5.25;3.15;;;11.70;96.70;;;;;;5021313;28;20546;-82
2021/11/02 16:31:04;;;;;;;6.63;4.30;;;11.60;96.70;;;;;;5026130;28;20149;-81
2021/11/02 16:33:43;;;;;;;9.20;5.40;;;11.70;96.70;;;;;;5016613;28;20062;-81
2021/11/02 16:36:17;;;;;;;7.38;4.93;;;11.70;96.70;;;;;;5016464;28;20030;-80
2021/11/02 16:38:43;;;;;;;5.43;4.07;;;11.70;96.80;;;;;;5021892;28;20036;-80
2021/11/02 16:41:23;;;;;;;8.20;4.32;;;11.70;96.80;;;;;;5018858;28;20510;-80
2021/11/02 16:43:49;;;;;;;6.65;3.97;;;11.80;96.90;;;;;;5026571;28;20592;-80
2021/11/02 16:46:44;;;;;;;8.20;4.10;;;11.70;97.00;;;;;;5017116;28;20136;-80
2021/11/02 16:49:24;;;;;;;4.95;3.42;;;11.70;97.00;;;;;;5025298;28;20030;-80
2021/11/02 16:52:00;;;;;;;5.70;3.63;;;11.80;97.00;;;;;;5026698;28;20040;-80
2021/11/02 16:54:28;;;;;;;5.07;3.47;;;11.80;97.00;;;;;;5027711;28;20124;-80
2021/11/02 16:57:04;;;;;;;6.18;3.47;;;11.80;97.00;;;;;;5029354;28;20124;-79
2021/11/02 16:59:42;;;;;;;4.47;3.33;;;11.80;96.90;;;;;;5018379;28;20039;-80
2021/11/02 17:02:24;;;;;;;9.00;4.57;;;11.80;96.90;;;;;;5027925;28;20060;-82
2021/11/02 17:05:13;;;;;;;5.68;3.72;;;11.90;96.90;;;;;;5027772;28;20040;-82
2021/11/02 17:07:51;;;;;;;3.10;2.65;;;11.80;96.80;;;;;;5028436;28;20037;-80
2021/11/02 17:10:40;;;;;;;4.63;2.88;;;11.90;96.80;;;;;;5028292;28;20029;-80
2021/11/02 17:13:23;;;;;;;9.93;3.95;;;11.80;96.80;;;;;;5026911;28;20112;-81
2021/11/02 17:15:59;;;;;;;5.10;2.63;;;11.80;96.70;;;;;;5028691;28;20060;-80
2021/11/02 17:18:57;;;;;;;4.07;2.75;;;11.80;96.90;;;;;;5027066;28;20026;-81
2021/11/02 17:21:25;;;;;;;5.40;3.05;;;11.80;96.70;;;;;;5028644;28;20033;-81
2021/11/02 17:23:52;;;;;;;4.75;2.80;;;11.90;96.70;;;;;;5023446;28;20034;-81
2021/11/02 17:26:19;;;;;;;3.95;2.90;;;11.90;96.70;;;;;;5025375;28;20037;-81
2021/11/02 17:28:47;;;;;;;3.35;2.47;;;11.80;96.70;;;;;;5027152;28;20442;-82
2021/11/02 17:31:16;;;;;;;5.07;3.22;;;11.80;96.60;;;;;;5026821;28;20092;-81
2021/11/02 17:33:42;;;;;;;6.40;3.92;;;11.80;96.60;;;;;;5025976;28;20037;-81
2021/11/02 17:36:14;;;;;;;8.48;4.20;;;11.80;96.60;;;;;;5025237;28;20164;-81
2021/11/02 17:38:41;;;;;;;2.58;2.30;;;11.80;96.60;;;;;;5026387;28;20439;-81
2021/11/02 17:41:08;;;;;;;5.05;3.45;;;11.80;96.60;;;;;;5024014;28;20096;-81
2021/11/02 17:43:36;;;;;;;7.25;4.00;;;11.80;96.60;;;;;;5034294;28;20043;-80
2021/11/02 17:46:03;;;;;;;5.03;3.60;;;11.70;96.50;;;;;;5036388;28;20026;-80
2021/11/02 17:48:29;;;;;;;5.13;3.30;;;11.70;96.70;;;;;;5024834;28;20033;-80
2021/11/02 17:50:55;;;;;;;12.55;4.20;;;11.70;96.50;;;;;;5025740;28;20037;-79